Ginys del Meteocat

Dades de l'estació automàtica Aitona

?
?
Resum diari 21:30 TU
Dades diàries de l'estació meteorològica
Temperatura mitjana 5.1 °C
Temperatura màxima 10.9 °C 16:08 TU
Temperatura mínima 1.9 °C 2:53 TU
Humitat relativa mitjana 95%
Precipitació acumulada 0.1 mm
Ratxa màxima del vent (2 m) 6.8 km/h - 234º 14:24 TU
Irradiació solar global 5.3 MJ/m2

El tram horari està expressat en Temps Universal (TU). Cal sumar una hora en horari d'hivern i dues en horari d'estiu per passar a l'hora oficial.

Aitona

Metadades estació meteorol´gica
Municipi Aitona
Comarca Segrià
Altitud 97 m
Data alta 12.03.1998
Estat actual Operativa
Dades de període
Període
TU
TM
°C
TX
°C
TN
°C
HRM
%
PPT
mm
VVM (2 m)
km/h
DVM (2 m)
graus
VVX (2 m)
km/h
RS
W/m2
00:00 - 00:30 3.7 4.2 3.5 98 0.0 0.4 346 2.9 0
00:30 - 01:00 3.9 4.2 3.6 98 0.0 0.4 311 2.5 0
01:00 - 01:30 3.4 3.6 3.2 98 0.0 0.4 256 3.2 0
01:30 - 02:00 3.1 3.3 2.9 98 0.0 0.7 24 2.5 0
02:00 - 02:30 2.5 3.0 2.3 98 0.0 0.4 69 2.9 0
02:30 - 03:00 2.2 2.7 1.9 98 0.0 0.0 267 1.4 0
03:00 - 03:30 2.4 2.8 2.1 98 0.0 0.0 0 0.0 0
03:30 - 04:00 3.0 3.3 2.8 98 0.0 0.0 0 0.0 0
04:00 - 04:30 3.2 3.3 3.2 98 0.0 0.0 0 0.0 0
04:30 - 05:00 3.1 3.2 3.1 98 0.0 0.7 224 2.5 0
05:00 - 05:30 3.1 3.1 3.1 98 0.0 1.1 221 2.9 0
05:30 - 06:00 3.0 3.1 2.9 98 0.0 0.4 240 3.2 0
06:00 - 06:30 3.0 3.0 2.9 98 0.0 1.8 229 6.1 0
06:30 - 07:00 3.0 3.1 2.9 98 0.1 0.7 250 2.9 0
07:00 - 07:30 3.2 3.2 3.1 98 0.0 0.7 232 2.9 3
07:30 - 08:00 3.3 3.3 3.2 98 0.0 1.1 237 4.0 17
08:00 - 08:30 3.4 3.6 3.3 98 0.0 0.4 294 2.5 42
08:30 - 09:00 3.6 3.7 3.5 98 0.0 0.7 248 3.6 63
09:00 - 09:30 3.5 3.7 3.4 98 0.0 1.4 205 4.7 87
09:30 - 10:00 3.8 3.9 3.6 98 0.0 1.1 273 4.3 116
10:00 - 10:30 3.9 4.3 3.7 98 0.0 1.4 292 3.2 127
10:30 - 11:00 4.4 4.7 4.1 98 0.0 1.8 224 4.7 174
11:00 - 11:30 4.8 5.0 4.6 98 0.0 1.8 9 4.7 170
11:30 - 12:00 5.2 5.8 4.8 98 0.0 1.1 291 4.3 212
12:00 - 12:30 5.8 6.0 5.5 98 0.0 1.4 142 3.6 186
12:30 - 13:00 6.3 6.6 6.0 98 0.0 1.4 210 4.7 230
13:00 - 13:30 6.8 7.4 6.4 98 0.0 1.8 169 6.1 295
13:30 - 14:00 8.0 8.8 7.5 96 0.0 1.8 243 5.8 332
14:00 - 14:30 9.7 10.2 8.8 87 0.0 2.5 225 6.8 331
14:30 - 15:00 10.4 10.5 10.1 80 0.0 2.2 232 6.5 184
15:00 - 15:30 10.1 10.2 10.0 81 0.0 2.5 233 6.1 129
15:30 - 16:00 10.5 10.8 10.1 78 0.0 3.2 205 6.5 161
16:00 - 16:30 10.6 10.9 10.1 79 0.0 1.1 214 5.0 78
16:30 - 17:00 9.4 10.1 8.6 84 0.0 0.0 0 0.0 19
17:00 - 17:30 7.7 8.6 7.0 91 0.0 0.0 0 0.0 0
17:30 - 18:00 6.6 7.1 6.3 95 0.0 0.0 65 1.4 0
18:00 - 18:30 6.0 6.4 5.7 96 0.0 1.8 49 3.6 0
18:30 - 19:00 5.9 6.2 5.4 97 0.0 2.5 31 4.7 0
19:00 - 19:30 5.2 5.9 4.8 97 0.0 1.1 65 4.3 0
19:30 - 20:00 5.4 5.6 5.0 97 0.0 0.4 42 2.2 0
20:00 - 20:30 5.0 5.4 4.7 97 0.0 0.0 125 1.4 0
20:30 - 21:00 4.9 5.2 4.7 97 0.0 0.7 331 3.2 0
21:00 - 21:30 4.7 5.2 4.5 97 0.0 0.0 341 1.1 0
21:30 - 22:00 4.7 4.9 4.5 97 0.0 0.4 358 2.5 0

Les dades en taronja només han passat un control de qualitat automàtic. Resta pendent la seva validació definitiva.